sensor_id;sensor_type;location;lat;lon;timestamp;P1;durP1;ratioP1;P2;durP2;ratioP2
75892;SDS011;64572;50.950;3.676;2023-02-28T00:00:10;17.48;;;6.82;;
75892;SDS011;64572;50.950;3.676;2023-02-28T00:02:38;17.63;;;7.35;;
75892;SDS011;64572;50.950;3.676;2023-02-28T00:05:05;13.15;;;5.97;;
75892;SDS011;64572;50.950;3.676;2023-02-28T00:07:31;18.23;;;7.40;;
75892;SDS011;64572;50.950;3.676;2023-02-28T00:09:57;14.57;;;6.43;;
75892;SDS011;64572;50.950;3.676;2023-02-28T00:12:24;15.60;;;6.93;;
75892;SDS011;64572;50.950;3.676;2023-02-28T00:14:50;15.32;;;6.40;;
75892;SDS011;64572;50.950;3.676;2023-02-28T00:17:16;18.27;;;7.10;;
75892;SDS011;64572;50.950;3.676;2023-02-28T00:19:49;15.98;;;6.80;;
75892;SDS011;64572;50.950;3.676;2023-02-28T00:22:17;15.77;;;6.93;;
75892;SDS011;64572;50.950;3.676;2023-02-28T00:24:44;13.82;;;7.53;;
75892;SDS011;64572;50.950;3.676;2023-02-28T00:27:10;15.02;;;7.47;;
75892;SDS011;64572;50.950;3.676;2023-02-28T00:29:36;17.88;;;7.60;;
75892;SDS011;64572;50.950;3.676;2023-02-28T00:32:02;18.02;;;7.57;;
75892;SDS011;64572;50.950;3.676;2023-02-28T00:34:29;15.48;;;7.32;;
75892;SDS011;64572;50.950;3.676;2023-02-28T00:36:54;15.80;;;8.20;;
75892;SDS011;64572;50.950;3.676;2023-02-28T00:39:20;15.18;;;7.68;;
75892;SDS011;64572;50.950;3.676;2023-02-28T00:41:46;14.77;;;7.93;;
75892;SDS011;64572;50.950;3.676;2023-02-28T00:44:12;15.18;;;7.55;;
75892;SDS011;64572;50.950;3.676;2023-02-28T00:46:37;14.85;;;7.38;;
75892;SDS011;64572;50.950;3.676;2023-02-28T00:49:03;18.67;;;8.25;;
75892;SDS011;64572;50.950;3.676;2023-02-28T00:51:29;16.98;;;7.90;;
75892;SDS011;64572;50.950;3.676;2023-02-28T00:53:54;16.00;;;7.93;;
75892;SDS011;64572;50.950;3.676;2023-02-28T00:56:20;17.73;;;7.80;;
75892;SDS011;64572;50.950;3.676;2023-02-28T00:58:46;16.35;;;7.78;;
75892;SDS011;64572;50.950;3.676;2023-02-28T01:01:11;18.48;;;8.40;;
75892;SDS011;64572;50.950;3.676;2023-02-28T01:03:37;17.38;;;7.88;;
75892;SDS011;64572;50.950;3.676;2023-02-28T01:06:03;15.32;;;7.40;;
75892;SDS011;64572;50.950;3.676;2023-02-28T01:08:29;17.40;;;8.25;;
75892;SDS011;64572;50.950;3.676;2023-02-28T01:10:55;16.67;;;8.15;;
75892;SDS011;64572;50.950;3.676;2023-02-28T01:13:21;16.63;;;8.55;;
75892;SDS011;64572;50.950;3.676;2023-02-28T01:15:51;17.25;;;8.30;;
75892;SDS011;64572;50.950;3.676;2023-02-28T01:18:21;19.52;;;8.10;;
75892;SDS011;64572;50.950;3.676;2023-02-28T01:20:47;14.30;;;7.88;;
75892;SDS011;64572;50.950;3.676;2023-02-28T01:23:13;20.38;;;8.40;;
75892;SDS011;64572;50.950;3.676;2023-02-28T01:25:39;20.73;;;8.30;;
75892;SDS011;64572;50.950;3.676;2023-02-28T01:28:05;17.10;;;8.10;;
75892;SDS011;64572;50.950;3.676;2023-02-28T01:30:31;18.48;;;8.88;;
75892;SDS011;64572;50.950;3.676;2023-02-28T01:32:57;19.45;;;8.70;;
75892;SDS011;64572;50.950;3.676;2023-02-28T01:35:23;20.30;;;8.90;;
75892;SDS011;64572;50.950;3.676;2023-02-28T01:37:49;16.10;;;8.25;;
75892;SDS011;64572;50.950;3.676;2023-02-28T01:40:14;18.33;;;8.60;;
75892;SDS011;64572;50.950;3.676;2023-02-28T01:42:40;17.70;;;7.95;;
75892;SDS011;64572;50.950;3.676;2023-02-28T01:47:52;18.85;;;8.27;;
75892;SDS011;64572;50.950;3.676;2023-02-28T01:50:26;21.88;;;8.95;;
75892;SDS011;64572;50.950;3.676;2023-02-28T01:52:55;18.65;;;8.75;;
75892;SDS011;64572;50.950;3.676;2023-02-28T01:55:24;19.10;;;9.23;;
75892;SDS011;64572;50.950;3.676;2023-02-28T01:57:54;19.13;;;9.27;;
75892;SDS011;64572;50.950;3.676;2023-02-28T02:02:51;20.35;;;9.98;;
75892;SDS011;64572;50.950;3.676;2023-02-28T02:05:22;20.50;;;9.02;;
75892;SDS011;64572;50.950;3.676;2023-02-28T02:07:51;21.38;;;9.35;;
75892;SDS011;64572;50.950;3.676;2023-02-28T02:18:41;18.85;;;9.32;;
75892;SDS011;64572;50.950;3.676;2023-02-28T02:21:19;18.92;;;9.25;;
75892;SDS011;64572;50.950;3.676;2023-02-28T02:29:52;17.20;;;8.82;;
75892;SDS011;64572;50.950;3.676;2023-02-28T02:32:33;20.30;;;9.60;;
75892;SDS011;64572;50.950;3.676;2023-02-28T02:41:05;20.17;;;10.73;;
75892;SDS011;64572;50.950;3.676;2023-02-28T02:43:53;19.92;;;9.88;;
75892;SDS011;64572;50.950;3.676;2023-02-28T02:46:34;19.88;;;9.38;;
75892;SDS011;64572;50.950;3.676;2023-02-28T02:49:03;17.23;;;9.68;;
75892;SDS011;64572;50.950;3.676;2023-02-28T02:51:31;20.65;;;10.40;;
75892;SDS011;64572;50.950;3.676;2023-02-28T02:54:44;19.63;;;9.68;;
75892;SDS011;64572;50.950;3.676;2023-02-28T02:56:48;20.08;;;9.73;;
75892;SDS011;64572;50.950;3.676;2023-02-28T02:59:16;19.13;;;10.05;;
75892;SDS011;64572;50.950;3.676;2023-02-28T03:01:46;19.27;;;10.32;;
75892;SDS011;64572;50.950;3.676;2023-02-28T03:04:20;19.40;;;10.13;;
75892;SDS011;64572;50.950;3.676;2023-02-28T03:06:49;20.08;;;10.70;;
75892;SDS011;64572;50.950;3.676;2023-02-28T03:09:19;18.02;;;9.55;;
75892;SDS011;64572;50.950;3.676;2023-02-28T03:11:46;21.65;;;11.00;;
75892;SDS011;64572;50.950;3.676;2023-02-28T03:15:17;20.13;;;10.27;;
75892;SDS011;64572;50.950;3.676;2023-02-28T03:22:58;21.48;;;10.60;;
75892;SDS011;64572;50.950;3.676;2023-02-28T03:31:26;21.23;;;10.90;;
75892;SDS011;64572;50.950;3.676;2023-02-28T03:34:01;19.00;;;10.02;;
75892;SDS011;64572;50.950;3.676;2023-02-28T03:36:45;21.65;;;11.15;;
75892;SDS011;64572;50.950;3.676;2023-02-28T03:39:16;20.58;;;10.80;;
75892;SDS011;64572;50.950;3.676;2023-02-28T03:41:52;20.85;;;11.43;;
75892;SDS011;64572;50.950;3.676;2023-02-28T03:44:34;20.73;;;11.75;;
75892;SDS011;64572;50.950;3.676;2023-02-28T03:47:51;24.13;;;11.63;;
75892;SDS011;64572;50.950;3.676;2023-02-28T03:50:01;20.73;;;9.95;;
75892;SDS011;64572;50.950;3.676;2023-02-28T03:52:34;22.05;;;10.48;;
75892;SDS011;64572;50.950;3.676;2023-02-28T03:55:06;21.52;;;11.25;;
75892;SDS011;64572;50.950;3.676;2023-02-28T04:00:33;21.08;;;11.23;;
75892;SDS011;64572;50.950;3.676;2023-02-28T04:03:02;23.23;;;11.27;;
75892;SDS011;64572;50.950;3.676;2023-02-28T04:05:28;26.88;;;10.68;;
75892;SDS011;64572;50.950;3.676;2023-02-28T04:08:03;28.27;;;13.68;;
75892;SDS011;64572;50.950;3.676;2023-02-28T04:10:32;22.77;;;11.35;;
75892;SDS011;64572;50.950;3.676;2023-02-28T04:12:58;24.27;;;11.90;;
75892;SDS011;64572;50.950;3.676;2023-02-28T04:15:24;20.77;;;10.60;;
75892;SDS011;64572;50.950;3.676;2023-02-28T04:17:49;18.60;;;9.63;;
75892;SDS011;64572;50.950;3.676;2023-02-28T04:20:15;22.98;;;12.00;;
75892;SDS011;64572;50.950;3.676;2023-02-28T04:22:41;22.38;;;11.48;;
75892;SDS011;64572;50.950;3.676;2023-02-28T04:25:07;22.67;;;11.60;;
75892;SDS011;64572;50.950;3.676;2023-02-28T04:27:33;20.20;;;11.43;;
75892;SDS011;64572;50.950;3.676;2023-02-28T04:29:59;22.27;;;11.35;;
75892;SDS011;64572;50.950;3.676;2023-02-28T04:32:24;21.90;;;10.32;;
75892;SDS011;64572;50.950;3.676;2023-02-28T04:34:50;22.10;;;11.43;;
75892;SDS011;64572;50.950;3.676;2023-02-28T04:37:16;22.60;;;11.48;;
75892;SDS011;64572;50.950;3.676;2023-02-28T04:39:42;21.75;;;11.13;;
75892;SDS011;64572;50.950;3.676;2023-02-28T04:42:08;25.65;;;11.73;;
75892;SDS011;64572;50.950;3.676;2023-02-28T04:44:34;20.73;;;10.43;;
75892;SDS011;64572;50.950;3.676;2023-02-28T04:46:59;20.35;;;10.55;;
75892;SDS011;64572;50.950;3.676;2023-02-28T04:49:25;23.15;;;10.95;;
75892;SDS011;64572;50.950;3.676;2023-02-28T04:51:51;22.45;;;11.23;;
75892;SDS011;64572;50.950;3.676;2023-02-28T04:54:17;23.15;;;10.57;;
75892;SDS011;64572;50.950;3.676;2023-02-28T04:56:43;23.58;;;10.38;;
75892;SDS011;64572;50.950;3.676;2023-02-28T04:59:09;20.75;;;10.27;;
75892;SDS011;64572;50.950;3.676;2023-02-28T05:01:35;21.67;;;11.48;;
75892;SDS011;64572;50.950;3.676;2023-02-28T05:04:01;23.33;;;9.95;;
75892;SDS011;64572;50.950;3.676;2023-02-28T05:06:29;20.88;;;10.57;;
75892;SDS011;64572;50.950;3.676;2023-02-28T05:11:29;22.35;;;10.45;;
75892;SDS011;64572;50.950;3.676;2023-02-28T05:14:00;16.08;;;8.20;;
75892;SDS011;64572;50.950;3.676;2023-02-28T05:16:26;21.45;;;10.15;;
75892;SDS011;64572;50.950;3.676;2023-02-28T05:18:52;21.65;;;10.23;;
75892;SDS011;64572;50.950;3.676;2023-02-28T05:23:55;20.35;;;10.15;;
75892;SDS011;64572;50.950;3.676;2023-02-28T05:26:23;29.45;;;10.85;;
75892;SDS011;64572;50.950;3.676;2023-02-28T05:28:49;23.20;;;11.40;;
75892;SDS011;64572;50.950;3.676;2023-02-28T05:31:14;23.65;;;11.48;;
75892;SDS011;64572;50.950;3.676;2023-02-28T05:33:40;30.42;;;11.73;;
75892;SDS011;64572;50.950;3.676;2023-02-28T05:36:06;24.60;;;10.82;;
75892;SDS011;64572;50.950;3.676;2023-02-28T05:38:32;22.05;;;10.50;;
75892;SDS011;64572;50.950;3.676;2023-02-28T05:40:58;27.17;;;10.95;;
75892;SDS011;64572;50.950;3.676;2023-02-28T05:43:23;26.80;;;11.75;;
75892;SDS011;64572;50.950;3.676;2023-02-28T05:45:49;20.55;;;10.15;;
75892;SDS011;64572;50.950;3.676;2023-02-28T05:48:15;18.75;;;9.90;;
75892;SDS011;64572;50.950;3.676;2023-02-28T05:50:41;21.80;;;9.95;;
75892;SDS011;64572;50.950;3.676;2023-02-28T05:53:09;21.80;;;11.07;;
75892;SDS011;64572;50.950;3.676;2023-02-28T05:55:35;23.63;;;10.40;;
75892;SDS011;64572;50.950;3.676;2023-02-28T05:58:02;21.90;;;10.20;;
75892;SDS011;64572;50.950;3.676;2023-02-28T06:00:27;26.60;;;10.70;;
75892;SDS011;64572;50.950;3.676;2023-02-28T06:02:53;24.80;;;10.73;;
75892;SDS011;64572;50.950;3.676;2023-02-28T06:05:21;21.13;;;9.95;;
75892;SDS011;64572;50.950;3.676;2023-02-28T06:07:47;25.23;;;10.60;;
75892;SDS011;64572;50.950;3.676;2023-02-28T06:10:13;22.10;;;10.32;;
75892;SDS011;64572;50.950;3.676;2023-02-28T06:12:39;22.30;;;10.10;;
75892;SDS011;64572;50.950;3.676;2023-02-28T06:15:07;19.13;;;10.18;;
75892;SDS011;64572;50.950;3.676;2023-02-28T06:17:36;19.50;;;10.20;;
75892;SDS011;64572;50.950;3.676;2023-02-28T06:20:02;22.95;;;10.18;;
75892;SDS011;64572;50.950;3.676;2023-02-28T06:22:29;20.52;;;10.10;;
75892;SDS011;64572;50.950;3.676;2023-02-28T06:24:55;21.20;;;9.43;;
75892;SDS011;64572;50.950;3.676;2023-02-28T06:27:22;20.35;;;9.88;;
75892;SDS011;64572;50.950;3.676;2023-02-28T06:29:47;21.13;;;9.38;;
75892;SDS011;64572;50.950;3.676;2023-02-28T06:32:13;21.67;;;9.75;;
75892;SDS011;64572;50.950;3.676;2023-02-28T06:34:39;18.83;;;9.23;;
75892;SDS011;64572;50.950;3.676;2023-02-28T06:37:04;19.73;;;9.15;;
75892;SDS011;64572;50.950;3.676;2023-02-28T06:39:30;22.05;;;9.93;;
75892;SDS011;64572;50.950;3.676;2023-02-28T06:41:56;18.90;;;9.75;;
75892;SDS011;64572;50.950;3.676;2023-02-28T06:44:22;23.90;;;9.93;;
75892;SDS011;64572;50.950;3.676;2023-02-28T06:46:49;15.02;;;7.43;;
75892;SDS011;64572;50.950;3.676;2023-02-28T06:49:15;21.00;;;9.48;;
75892;SDS011;64572;50.950;3.676;2023-02-28T06:51:41;16.48;;;8.18;;
75892;SDS011;64572;50.950;3.676;2023-02-28T06:54:10;20.73;;;9.32;;
75892;SDS011;64572;50.950;3.676;2023-02-28T06:56:36;19.80;;;9.25;;
75892;SDS011;64572;50.950;3.676;2023-02-28T06:59:02;16.52;;;8.23;;
75892;SDS011;64572;50.950;3.676;2023-02-28T07:01:29;19.30;;;9.52;;
75892;SDS011;64572;50.950;3.676;2023-02-28T07:03:56;19.83;;;9.07;;
75892;SDS011;64572;50.950;3.676;2023-02-28T07:06:22;20.98;;;8.80;;
75892;SDS011;64572;50.950;3.676;2023-02-28T07:08:48;21.75;;;8.85;;
75892;SDS011;64572;50.950;3.676;2023-02-28T07:11:15;17.67;;;9.38;;
75892;SDS011;64572;50.950;3.676;2023-02-28T07:13:40;20.05;;;8.70;;
75892;SDS011;64572;50.950;3.676;2023-02-28T07:16:07;18.38;;;9.07;;
75892;SDS011;64572;50.950;3.676;2023-02-28T07:18:35;16.83;;;8.20;;
75892;SDS011;64572;50.950;3.676;2023-02-28T07:21:01;18.90;;;8.75;;
75892;SDS011;64572;50.950;3.676;2023-02-28T07:23:28;25.55;;;9.48;;
75892;SDS011;64572;50.950;3.676;2023-02-28T07:25:54;18.77;;;9.02;;
75892;SDS011;64572;50.950;3.676;2023-02-28T07:28:19;18.63;;;8.90;;
75892;SDS011;64572;50.950;3.676;2023-02-28T07:30:45;18.23;;;8.50;;
75892;SDS011;64572;50.950;3.676;2023-02-28T07:33:11;14.60;;;6.07;;
75892;SDS011;64572;50.950;3.676;2023-02-28T07:35:36;21.02;;;8.02;;
75892;SDS011;64572;50.950;3.676;2023-02-28T07:38:02;21.77;;;8.93;;
75892;SDS011;64572;50.950;3.676;2023-02-28T07:40:29;18.05;;;8.55;;
75892;SDS011;64572;50.950;3.676;2023-02-28T07:42:54;19.77;;;8.68;;
75892;SDS011;64572;50.950;3.676;2023-02-28T07:45:20;17.42;;;8.40;;
75892;SDS011;64572;50.950;3.676;2023-02-28T07:47:46;17.77;;;9.10;;
75892;SDS011;64572;50.950;3.676;2023-02-28T07:50:12;13.65;;;5.32;;
75892;SDS011;64572;50.950;3.676;2023-02-28T07:52:39;17.55;;;6.90;;
75892;SDS011;64572;50.950;3.676;2023-02-28T07:55:06;17.05;;;8.23;;
75892;SDS011;64572;50.950;3.676;2023-02-28T07:57:33;17.60;;;8.10;;
75892;SDS011;64572;50.950;3.676;2023-02-28T07:59:59;18.75;;;9.65;;
75892;SDS011;64572;50.950;3.676;2023-02-28T08:02:24;20.75;;;8.10;;
75892;SDS011;64572;50.950;3.676;2023-02-28T08:04:50;20.45;;;8.57;;
75892;SDS011;64572;50.950;3.676;2023-02-28T08:07:16;19.90;;;8.13;;
75892;SDS011;64572;50.950;3.676;2023-02-28T08:09:43;16.83;;;7.90;;
75892;SDS011;64572;50.950;3.676;2023-02-28T08:12:09;18.25;;;8.75;;
75892;SDS011;64572;50.950;3.676;2023-02-28T08:14:36;16.55;;;8.60;;
75892;SDS011;64572;50.950;3.676;2023-02-28T08:17:02;17.70;;;7.95;;
75892;SDS011;64572;50.950;3.676;2023-02-28T08:19:28;19.23;;;8.32;;
75892;SDS011;64572;50.950;3.676;2023-02-28T08:21:54;18.90;;;8.00;;
75892;SDS011;64572;50.950;3.676;2023-02-28T08:24:20;15.32;;;7.25;;
75892;SDS011;64572;50.950;3.676;2023-02-28T08:26:45;15.32;;;7.60;;
75892;SDS011;64572;50.950;3.676;2023-02-28T08:29:11;16.75;;;7.30;;
75892;SDS011;64572;50.950;3.676;2023-02-28T08:31:37;19.23;;;7.80;;
75892;SDS011;64572;50.950;3.676;2023-02-28T08:34:06;23.17;;;7.45;;
75892;SDS011;64572;50.950;3.676;2023-02-28T08:36:36;15.85;;;6.97;;
75892;SDS011;64572;50.950;3.676;2023-02-28T08:39:02;22.38;;;7.47;;
75892;SDS011;64572;50.950;3.676;2023-02-28T08:41:28;16.42;;;7.55;;
75892;SDS011;64572;50.950;3.676;2023-02-28T08:43:54;21.10;;;8.13;;
75892;SDS011;64572;50.950;3.676;2023-02-28T08:46:20;19.90;;;7.80;;
75892;SDS011;64572;50.950;3.676;2023-02-28T08:48:46;16.65;;;6.78;;
75892;SDS011;64572;50.950;3.676;2023-02-28T08:51:16;18.90;;;8.32;;
75892;SDS011;64572;50.950;3.676;2023-02-28T08:53:43;85.15;;;33.42;;
75892;SDS011;64572;50.950;3.676;2023-02-28T08:56:10;18.83;;;7.13;;
75892;SDS011;64572;50.950;3.676;2023-02-28T08:58:37;14.77;;;7.47;;
75892;SDS011;64572;50.950;3.676;2023-02-28T09:01:10;18.08;;;7.03;;
75892;SDS011;64572;50.950;3.676;2023-02-28T09:03:39;15.65;;;6.30;;
75892;SDS011;64572;50.950;3.676;2023-02-28T09:06:06;15.10;;;6.83;;
75892;SDS011;64572;50.950;3.676;2023-02-28T09:08:32;15.27;;;5.80;;
75892;SDS011;64572;50.950;3.676;2023-02-28T09:10:58;18.88;;;6.82;;
75892;SDS011;64572;50.950;3.676;2023-02-28T09:13:25;13.38;;;5.78;;
75892;SDS011;64572;50.950;3.676;2023-02-28T09:15:51;57.95;;;26.08;;
75892;SDS011;64572;50.950;3.676;2023-02-28T09:18:18;13.48;;;6.25;;
75892;SDS011;64572;50.950;3.676;2023-02-28T09:20:43;14.63;;;6.18;;
75892;SDS011;64572;50.950;3.676;2023-02-28T09:23:10;19.55;;;7.18;;
75892;SDS011;64572;50.950;3.676;2023-02-28T09:25:37;13.85;;;6.45;;
75892;SDS011;64572;50.950;3.676;2023-02-28T09:28:09;16.85;;;7.03;;
75892;SDS011;64572;50.950;3.676;2023-02-28T09:30:36;32.10;;;14.95;;
75892;SDS011;64572;50.950;3.676;2023-02-28T09:33:02;29.30;;;13.95;;
75892;SDS011;64572;50.950;3.676;2023-02-28T09:35:28;16.45;;;6.60;;
75892;SDS011;64572;50.950;3.676;2023-02-28T09:37:55;13.45;;;5.45;;
75892;SDS011;64572;50.950;3.676;2023-02-28T09:40:22;23.80;;;12.00;;
75892;SDS011;64572;50.950;3.676;2023-02-28T09:42:51;14.30;;;5.70;;
75892;SDS011;64572;50.950;3.676;2023-02-28T09:45:26;13.57;;;5.40;;
75892;SDS011;64572;50.950;3.676;2023-02-28T09:48:12;14.15;;;4.93;;
75892;SDS011;64572;50.950;3.676;2023-02-28T09:50:45;14.05;;;5.55;;
75892;SDS011;64572;50.950;3.676;2023-02-28T09:53:28;11.80;;;5.15;;
75892;SDS011;64572;50.950;3.676;2023-02-28T09:56:20;14.75;;;5.22;;
75892;SDS011;64572;50.950;3.676;2023-02-28T09:58:55;11.23;;;4.60;;
75892;SDS011;64572;50.950;3.676;2023-02-28T10:06:44;14.90;;;4.93;;
75892;SDS011;64572;50.950;3.676;2023-02-28T10:09:25;12.80;;;5.10;;
75892;SDS011;64572;50.950;3.676;2023-02-28T10:11:56;11.43;;;4.63;;
75892;SDS011;64572;50.950;3.676;2023-02-28T10:14:29;13.98;;;5.18;;
75892;SDS011;64572;50.950;3.676;2023-02-28T10:17:12;10.65;;;4.15;;
75892;SDS011;64572;50.950;3.676;2023-02-28T10:19:43;11.85;;;4.38;;
75892;SDS011;64572;50.950;3.676;2023-02-28T10:22:37;13.23;;;5.00;;
75892;SDS011;64572;50.950;3.676;2023-02-28T10:25:18;10.05;;;3.50;;
75892;SDS011;64572;50.950;3.676;2023-02-28T10:27:49;9.38;;;3.50;;
75892;SDS011;64572;50.950;3.676;2023-02-28T10:30:18;6.68;;;2.58;;
75892;SDS011;64572;50.950;3.676;2023-02-28T10:32:47;6.18;;;2.45;;
75892;SDS011;64572;50.950;3.676;2023-02-28T10:35:20;7.90;;;3.67;;
75892;SDS011;64572;50.950;3.676;2023-02-28T10:37:49;9.88;;;3.33;;
75892;SDS011;64572;50.950;3.676;2023-02-28T10:45:23;9.80;;;2.85;;
75892;SDS011;64572;50.950;3.676;2023-02-28T10:50:28;7.70;;;3.03;;
75892;SDS011;64572;50.950;3.676;2023-02-28T10:56:03;5.82;;;2.22;;
75892;SDS011;64572;50.950;3.676;2023-02-28T11:01:15;9.35;;;3.08;;
75892;SDS011;64572;50.950;3.676;2023-02-28T11:03:49;8.10;;;2.90;;
75892;SDS011;64572;50.950;3.676;2023-02-28T11:06:17;9.23;;;3.60;;
75892;SDS011;64572;50.950;3.676;2023-02-28T11:09:14;8.63;;;2.90;;
75892;SDS011;64572;50.950;3.676;2023-02-28T11:11:54;11.52;;;3.38;;
75892;SDS011;64572;50.950;3.676;2023-02-28T11:14:21;10.00;;;3.45;;
75892;SDS011;64572;50.950;3.676;2023-02-28T11:16:50;9.65;;;3.50;;
75892;SDS011;64572;50.950;3.676;2023-02-28T11:19:18;11.63;;;3.13;;
75892;SDS011;64572;50.950;3.676;2023-02-28T11:21:50;8.20;;;3.03;;
75892;SDS011;64572;50.950;3.676;2023-02-28T11:24:23;6.55;;;2.90;;
75892;SDS011;64572;50.950;3.676;2023-02-28T11:26:52;5.65;;;2.08;;
75892;SDS011;64572;50.950;3.676;2023-02-28T11:32:05;9.65;;;3.08;;
75892;SDS011;64572;50.950;3.676;2023-02-28T11:34:41;9.95;;;3.13;;
75892;SDS011;64572;50.950;3.676;2023-02-28T11:37:18;9.65;;;3.30;;
75892;SDS011;64572;50.950;3.676;2023-02-28T11:39:44;10.05;;;3.10;;
75892;SDS011;64572;50.950;3.676;2023-02-28T11:52:53;9.68;;;3.60;;
75892;SDS011;64572;50.950;3.676;2023-02-28T11:55:27;8.85;;;2.88;;
75892;SDS011;64572;50.950;3.676;2023-02-28T12:03:31;7.95;;;2.60;;
75892;SDS011;64572;50.950;3.676;2023-02-28T12:17:14;5.65;;;2.05;;
75892;SDS011;64572;50.950;3.676;2023-02-28T12:22:32;7.85;;;2.17;;
75892;SDS011;64572;50.950;3.676;2023-02-28T12:27:33;7.55;;;2.25;;
75892;SDS011;64572;50.950;3.676;2023-02-28T12:30:26;5.50;;;2.17;;
75892;SDS011;64572;50.950;3.676;2023-02-28T12:33:12;6.32;;;2.10;;
75892;SDS011;64572;50.950;3.676;2023-02-28T12:35:55;8.07;;;2.28;;
75892;SDS011;64572;50.950;3.676;2023-02-28T12:38:23;5.85;;;2.30;;
75892;SDS011;64572;50.950;3.676;2023-02-28T12:43:33;5.70;;;2.20;;
75892;SDS011;64572;50.950;3.676;2023-02-28T12:46:10;5.65;;;1.98;;
75892;SDS011;64572;50.950;3.676;2023-02-28T12:48:49;5.47;;;2.20;;
75892;SDS011;64572;50.950;3.676;2023-02-28T12:51:21;3.85;;;1.75;;
75892;SDS011;64572;50.950;3.676;2023-02-28T12:59:29;7.28;;;2.15;;
75892;SDS011;64572;50.950;3.676;2023-02-28T13:03:16;9.70;;;3.80;;
75892;SDS011;64572;50.950;3.676;2023-02-28T13:10:48;7.47;;;2.65;;
75892;SDS011;64572;50.950;3.676;2023-02-28T13:13:22;5.50;;;2.28;;
75892;SDS011;64572;50.950;3.676;2023-02-28T13:16:04;6.75;;;3.20;;
75892;SDS011;64572;50.950;3.676;2023-02-28T13:18:38;5.53;;;2.15;;
75892;SDS011;64572;50.950;3.676;2023-02-28T13:21:29;5.63;;;2.70;;
75892;SDS011;64572;50.950;3.676;2023-02-28T13:24:01;6.72;;;2.30;;
75892;SDS011;64572;50.950;3.676;2023-02-28T13:34:31;6.65;;;2.42;;
75892;SDS011;64572;50.950;3.676;2023-02-28T13:42:33;8.27;;;2.85;;
75892;SDS011;64572;50.950;3.676;2023-02-28T13:50:29;7.38;;;2.72;;
75892;SDS011;64572;50.950;3.676;2023-02-28T14:00:36;5.70;;;2.08;;
75892;SDS011;64572;50.950;3.676;2023-02-28T14:08:55;3.50;;;1.60;;
75892;SDS011;64572;50.950;3.676;2023-02-28T14:11:34;6.70;;;2.25;;
75892;SDS011;64572;50.950;3.676;2023-02-28T14:14:02;7.35;;;2.85;;
75892;SDS011;64572;50.950;3.676;2023-02-28T14:16:44;10.33;;;3.93;;
75892;SDS011;64572;50.950;3.676;2023-02-28T14:19:25;9.75;;;3.90;;
75892;SDS011;64572;50.950;3.676;2023-02-28T14:35:40;6.03;;;2.40;;
75892;SDS011;64572;50.950;3.676;2023-02-28T14:38:13;8.18;;;3.00;;
75892;SDS011;64572;50.950;3.676;2023-02-28T14:40:47;8.43;;;2.80;;
75892;SDS011;64572;50.950;3.676;2023-02-28T14:43:21;8.70;;;2.83;;
75892;SDS011;64572;50.950;3.676;2023-02-28T14:46:02;6.70;;;2.72;;
75892;SDS011;64572;50.950;3.676;2023-02-28T14:48:31;6.88;;;2.70;;
75892;SDS011;64572;50.950;3.676;2023-02-28T14:50:59;7.67;;;3.00;;
75892;SDS011;64572;50.950;3.676;2023-02-28T14:53:27;6.28;;;2.80;;
75892;SDS011;64572;50.950;3.676;2023-02-28T14:55:55;9.05;;;3.33;;
75892;SDS011;64572;50.950;3.676;2023-02-28T14:58:28;9.75;;;3.17;;
75892;SDS011;64572;50.950;3.676;2023-02-28T15:00:57;8.25;;;2.90;;
75892;SDS011;64572;50.950;3.676;2023-02-28T15:03:34;8.48;;;3.17;;
75892;SDS011;64572;50.950;3.676;2023-02-28T15:06:03;7.63;;;3.08;;
75892;SDS011;64572;50.950;3.676;2023-02-28T15:08:31;10.90;;;3.55;;
75892;SDS011;64572;50.950;3.676;2023-02-28T15:11:17;7.18;;;2.58;;
75892;SDS011;64572;50.950;3.676;2023-02-28T15:13:47;9.02;;;3.15;;
75892;SDS011;64572;50.950;3.676;2023-02-28T15:16:17;7.35;;;3.22;;
75892;SDS011;64572;50.950;3.676;2023-02-28T15:18:48;8.63;;;3.00;;
75892;SDS011;64572;50.950;3.676;2023-02-28T15:21:24;9.43;;;3.58;;
75892;SDS011;64572;50.950;3.676;2023-02-28T15:24:10;8.75;;;3.03;;
75892;SDS011;64572;50.950;3.676;2023-02-28T15:26:42;8.13;;;2.80;;
75892;SDS011;64572;50.950;3.676;2023-02-28T15:29:21;12.43;;;4.07;;
75892;SDS011;64572;50.950;3.676;2023-02-28T15:31:50;8.43;;;3.38;;
75892;SDS011;64572;50.950;3.676;2023-02-28T15:34:22;9.80;;;3.38;;
75892;SDS011;64572;50.950;3.676;2023-02-28T15:37:02;11.85;;;3.97;;
75892;SDS011;64572;50.950;3.676;2023-02-28T15:39:50;9.48;;;3.47;;
75892;SDS011;64572;50.950;3.676;2023-02-28T15:42:18;12.43;;;4.50;;
75892;SDS011;64572;50.950;3.676;2023-02-28T15:44:45;13.15;;;4.40;;
75892;SDS011;64572;50.950;3.676;2023-02-28T15:52:19;10.70;;;5.18;;
75892;SDS011;64572;50.950;3.676;2023-02-28T15:55:10;6.43;;;2.55;;
75892;SDS011;64572;50.950;3.676;2023-02-28T17:04:20;14.35;;;6.57;;
75892;SDS011;64572;50.950;3.676;2023-02-28T17:06:46;11.60;;;4.88;;
75892;SDS011;64572;50.950;3.676;2023-02-28T17:09:21;12.90;;;5.25;;
75892;SDS011;64572;50.950;3.676;2023-02-28T17:11:48;12.90;;;4.25;;
75892;SDS011;64572;50.950;3.676;2023-02-28T17:14:14;12.77;;;4.50;;
75892;SDS011;64572;50.950;3.676;2023-02-28T17:16:40;12.20;;;5.18;;
75892;SDS011;64572;50.950;3.676;2023-02-28T17:19:11;11.77;;;5.30;;
75892;SDS011;64572;50.950;3.676;2023-02-28T17:21:38;12.80;;;5.40;;
75892;SDS011;64572;50.950;3.676;2023-02-28T17:24:06;12.18;;;5.60;;
75892;SDS011;64572;50.950;3.676;2023-02-28T17:26:33;14.05;;;6.40;;
75892;SDS011;64572;50.950;3.676;2023-02-28T17:28:58;15.30;;;6.07;;
75892;SDS011;64572;50.950;3.676;2023-02-28T17:31:24;15.05;;;5.50;;
75892;SDS011;64572;50.950;3.676;2023-02-28T17:33:51;12.63;;;6.30;;
75892;SDS011;64572;50.950;3.676;2023-02-28T17:36:20;14.05;;;6.43;;
75892;SDS011;64572;50.950;3.676;2023-02-28T17:38:49;15.63;;;6.10;;
75892;SDS011;64572;50.950;3.676;2023-02-28T17:41:15;14.00;;;6.50;;
75892;SDS011;64572;50.950;3.676;2023-02-28T17:43:41;19.20;;;6.95;;
75892;SDS011;64572;50.950;3.676;2023-02-28T17:46:16;15.85;;;6.90;;
75892;SDS011;64572;50.950;3.676;2023-02-28T17:48:50;15.77;;;6.75;;
75892;SDS011;64572;50.950;3.676;2023-02-28T17:51:18;15.15;;;6.70;;
75892;SDS011;64572;50.950;3.676;2023-02-28T17:53:45;14.73;;;6.18;;
75892;SDS011;64572;50.950;3.676;2023-02-28T17:56:14;16.33;;;6.53;;
75892;SDS011;64572;50.950;3.676;2023-02-28T17:58:43;15.27;;;7.28;;
75892;SDS011;64572;50.950;3.676;2023-02-28T18:01:09;15.90;;;7.18;;
75892;SDS011;64572;50.950;3.676;2023-02-28T18:03:35;20.70;;;6.60;;
75892;SDS011;64572;50.950;3.676;2023-02-28T18:06:01;20.38;;;7.95;;
75892;SDS011;64572;50.950;3.676;2023-02-28T18:08:28;16.67;;;8.00;;
75892;SDS011;64572;50.950;3.676;2023-02-28T18:10:53;20.73;;;8.38;;
75892;SDS011;64572;50.950;3.676;2023-02-28T18:13:19;18.25;;;8.75;;
75892;SDS011;64572;50.950;3.676;2023-02-28T18:15:45;18.20;;;8.65;;
75892;SDS011;64572;50.950;3.676;2023-02-28T18:18:12;24.10;;;9.15;;
75892;SDS011;64572;50.950;3.676;2023-02-28T18:20:38;20.42;;;10.00;;
75892;SDS011;64572;50.950;3.676;2023-02-28T18:23:03;23.92;;;10.88;;
75892;SDS011;64572;50.950;3.676;2023-02-28T18:25:29;22.77;;;10.77;;
75892;SDS011;64572;50.950;3.676;2023-02-28T18:27:54;26.60;;;11.20;;
75892;SDS011;64572;50.950;3.676;2023-02-28T18:30:27;30.45;;;11.50;;
75892;SDS011;64572;50.950;3.676;2023-02-28T18:32:56;21.67;;;11.15;;
75892;SDS011;64572;50.950;3.676;2023-02-28T18:35:25;25.90;;;12.18;;
75892;SDS011;64572;50.950;3.676;2023-02-28T18:40:35;24.63;;;12.63;;